sensor_id;sensor_type;location;lat;lon;timestamp;temperature;humidity
65074;DHT22;52218;51.224;-2.328;2022-09-01T00:02:29;15.90;93.20
65074;DHT22;52218;51.224;-2.328;2022-09-01T00:06:15;15.80;93.40
65074;DHT22;52218;51.224;-2.328;2022-09-01T00:10:05;15.80;93.70
65074;DHT22;52218;51.224;-2.328;2022-09-01T00:13:48;15.70;93.90
65074;DHT22;52218;51.224;-2.328;2022-09-01T00:17:31;15.60;94.10
65074;DHT22;52218;51.224;-2.328;2022-09-01T00:21:19;15.60;94.20
65074;DHT22;52218;51.224;-2.328;2022-09-01T00:25:03;15.50;94.50
65074;DHT22;52218;51.224;-2.328;2022-09-01T00:28:47;15.50;94.80
65074;DHT22;52218;51.224;-2.328;2022-09-01T00:32:29;15.40;95.10
65074;DHT22;52218;51.224;-2.328;2022-09-01T00:36:11;15.30;95.20
65074;DHT22;52218;51.224;-2.328;2022-09-01T00:39:53;15.20;95.50
65074;DHT22;52218;51.224;-2.328;2022-09-01T00:43:46;15.10;95.60
65074;DHT22;52218;51.224;-2.328;2022-09-01T00:47:28;15.10;95.70
65074;DHT22;52218;51.224;-2.328;2022-09-01T00:51:12;15.00;96.00
65074;DHT22;52218;51.224;-2.328;2022-09-01T00:54:58;15.00;96.20
65074;DHT22;52218;51.224;-2.328;2022-09-01T00:58:41;14.90;96.50
65074;DHT22;52218;51.224;-2.328;2022-09-01T01:02:23;14.80;96.60
65074;DHT22;52218;51.224;-2.328;2022-09-01T01:06:08;14.70;96.80
65074;DHT22;52218;51.224;-2.328;2022-09-01T01:09:50;14.70;97.00
65074;DHT22;52218;51.224;-2.328;2022-09-01T01:13:52;14.60;97.40
65074;DHT22;52218;51.224;-2.328;2022-09-01T01:17:35;14.60;97.40
65074;DHT22;52218;51.224;-2.328;2022-09-01T01:21:28;14.50;97.80
65074;DHT22;52218;51.224;-2.328;2022-09-01T01:25:44;14.50;98.10
65074;DHT22;52218;51.224;-2.328;2022-09-01T01:29:32;14.50;98.10
65074;DHT22;52218;51.224;-2.328;2022-09-01T01:33:14;14.50;98.70
65074;DHT22;52218;51.224;-2.328;2022-09-01T01:36:56;14.50;98.80
65074;DHT22;52218;51.224;-2.328;2022-09-01T01:40:40;14.50;99.00
65074;DHT22;52218;51.224;-2.328;2022-09-01T01:44:24;14.50;99.00
65074;DHT22;52218;51.224;-2.328;2022-09-01T01:48:08;14.50;99.20
65074;DHT22;52218;51.224;-2.328;2022-09-01T01:51:52;14.50;99.20
65074;DHT22;52218;51.224;-2.328;2022-09-01T01:55:37;14.50;99.30
65074;DHT22;52218;51.224;-2.328;2022-09-01T01:59:19;14.50;99.40
65074;DHT22;52218;51.224;-2.328;2022-09-01T02:03:05;14.60;99.50
65074;DHT22;52218;51.224;-2.328;2022-09-01T02:06:48;14.70;99.50
65074;DHT22;52218;51.224;-2.328;2022-09-01T02:10:35;14.80;99.50
65074;DHT22;52218;51.224;-2.328;2022-09-01T02:14:17;14.90;99.50
65074;DHT22;52218;51.224;-2.328;2022-09-01T02:18:02;15.00;99.40
65074;DHT22;52218;51.224;-2.328;2022-09-01T02:21:45;15.10;99.40
65074;DHT22;52218;51.224;-2.328;2022-09-01T02:25:29;15.20;99.30
65074;DHT22;52218;51.224;-2.328;2022-09-01T02:29:15;15.20;99.20
65074;DHT22;52218;51.224;-2.328;2022-09-01T02:33:01;15.30;99.20
65074;DHT22;52218;51.224;-2.328;2022-09-01T02:36:47;15.40;99.10
65074;DHT22;52218;51.224;-2.328;2022-09-01T02:40:29;15.40;99.00
65074;DHT22;52218;51.224;-2.328;2022-09-01T02:44:12;15.40;99.10
65074;DHT22;52218;51.224;-2.328;2022-09-01T02:47:56;15.40;99.00
65074;DHT22;52218;51.224;-2.328;2022-09-01T02:51:39;15.40;99.00
65074;DHT22;52218;51.224;-2.328;2022-09-01T02:55:21;15.40;99.10
65074;DHT22;52218;51.224;-2.328;2022-09-01T02:59:03;15.30;99.20
65074;DHT22;52218;51.224;-2.328;2022-09-01T03:02:48;15.30;99.20
65074;DHT22;52218;51.224;-2.328;2022-09-01T03:06:31;15.30;99.30
65074;DHT22;52218;51.224;-2.328;2022-09-01T03:10:15;15.30;97.40
65074;DHT22;52218;51.224;-2.328;2022-09-01T03:13:58;15.30;99.10
65074;DHT22;52218;51.224;-2.328;2022-09-01T03:17:40;15.20;99.30
65074;DHT22;52218;51.224;-2.328;2022-09-01T03:21:22;15.20;99.40
65074;DHT22;52218;51.224;-2.328;2022-09-01T03:25:04;15.20;99.40
65074;DHT22;52218;51.224;-2.328;2022-09-01T03:28:48;15.20;99.50
65074;DHT22;52218;51.224;-2.328;2022-09-01T03:32:30;15.20;99.50
65074;DHT22;52218;51.224;-2.328;2022-09-01T03:36:13;15.10;99.70
65074;DHT22;52218;51.224;-2.328;2022-09-01T03:40:00;15.10;99.60
65074;DHT22;52218;51.224;-2.328;2022-09-01T03:43:43;15.10;99.70
65074;DHT22;52218;51.224;-2.328;2022-09-01T03:47:28;15.10;99.80
65074;DHT22;52218;51.224;-2.328;2022-09-01T03:51:10;15.10;99.70
65074;DHT22;52218;51.224;-2.328;2022-09-01T03:54:54;15.10;99.80
65074;DHT22;52218;51.224;-2.328;2022-09-01T03:58:41;15.10;99.80
65074;DHT22;52218;51.224;-2.328;2022-09-01T04:02:28;15.10;99.90
65074;DHT22;52218;51.224;-2.328;2022-09-01T04:06:10;15.10;99.90
65074;DHT22;52218;51.224;-2.328;2022-09-01T04:09:53;15.10;99.90
65074;DHT22;52218;51.224;-2.328;2022-09-01T04:13:37;15.10;99.90
65074;DHT22;52218;51.224;-2.328;2022-09-01T04:17:19;15.20;99.90
65074;DHT22;52218;51.224;-2.328;2022-09-01T04:21:20;15.20;99.80
65074;DHT22;52218;51.224;-2.328;2022-09-01T04:25:04;15.30;99.80
65074;DHT22;52218;51.224;-2.328;2022-09-01T04:28:48;15.20;99.80
65074;DHT22;52218;51.224;-2.328;2022-09-01T04:32:31;15.30;99.80
65074;DHT22;52218;51.224;-2.328;2022-09-01T04:40:00;15.30;99.70
65074;DHT22;52218;51.224;-2.328;2022-09-01T04:43:46;15.30;99.70
65074;DHT22;52218;51.224;-2.328;2022-09-01T04:47:29;15.30;99.70
65074;DHT22;52218;51.224;-2.328;2022-09-01T04:51:17;15.30;99.70
65074;DHT22;52218;51.224;-2.328;2022-09-01T04:55:01;15.30;99.80
65074;DHT22;52218;51.224;-2.328;2022-09-01T04:58:47;15.40;99.80
65074;DHT22;52218;51.224;-2.328;2022-09-01T05:02:29;15.40;99.80
65074;DHT22;52218;51.224;-2.328;2022-09-01T05:06:16;15.40;99.70
65074;DHT22;52218;51.224;-2.328;2022-09-01T05:09:58;15.40;99.70
65074;DHT22;52218;51.224;-2.328;2022-09-01T05:13:47;15.50;99.70
65074;DHT22;52218;51.224;-2.328;2022-09-01T05:17:29;15.50;99.60
65074;DHT22;52218;51.224;-2.328;2022-09-01T05:21:11;15.50;99.60
65074;DHT22;52218;51.224;-2.328;2022-09-01T05:24:53;15.50;99.60
65074;DHT22;52218;51.224;-2.328;2022-09-01T05:28:36;15.60;99.60
65074;DHT22;52218;51.224;-2.328;2022-09-01T05:32:18;15.60;99.60
65074;DHT22;52218;51.224;-2.328;2022-09-01T05:36:00;15.60;99.60
65074;DHT22;52218;51.224;-2.328;2022-09-01T05:39:43;15.60;99.60
65074;DHT22;52218;51.224;-2.328;2022-09-01T05:43:25;15.70;99.60
65074;DHT22;52218;51.224;-2.328;2022-09-01T05:47:08;15.70;99.60
65074;DHT22;52218;51.224;-2.328;2022-09-01T05:51:07;15.70;99.60
65074;DHT22;52218;51.224;-2.328;2022-09-01T05:55:09;15.80;99.50
65074;DHT22;52218;51.224;-2.328;2022-09-01T05:58:52;15.80;99.40
65074;DHT22;52218;51.224;-2.328;2022-09-01T06:02:55;15.90;99.50
65074;DHT22;52218;51.224;-2.328;2022-09-01T06:06:44;15.90;99.50
65074;DHT22;52218;51.224;-2.328;2022-09-01T06:10:48;15.90;99.40
65074;DHT22;52218;51.224;-2.328;2022-09-01T06:14:30;16.00;99.30
65074;DHT22;52218;51.224;-2.328;2022-09-01T06:18:12;16.00;99.40
65074;DHT22;52218;51.224;-2.328;2022-09-01T06:21:55;16.10;99.40
65074;DHT22;52218;51.224;-2.328;2022-09-01T06:25:38;16.10;99.40
65074;DHT22;52218;51.224;-2.328;2022-09-01T06:29:20;16.20;99.30
65074;DHT22;52218;51.224;-2.328;2022-09-01T06:33:03;16.30;99.30
65074;DHT22;52218;51.224;-2.328;2022-09-01T06:36:47;16.30;99.10
65074;DHT22;52218;51.224;-2.328;2022-09-01T06:40:33;16.30;99.20
65074;DHT22;52218;51.224;-2.328;2022-09-01T06:44:16;16.40;99.20
65074;DHT22;52218;51.224;-2.328;2022-09-01T06:48:03;16.40;99.10
65074;DHT22;52218;51.224;-2.328;2022-09-01T06:51:45;16.40;98.00
65074;DHT22;52218;51.224;-2.328;2022-09-01T06:55:30;16.50;99.00
65074;DHT22;52218;51.224;-2.328;2022-09-01T06:59:15;16.60;99.10
65074;DHT22;52218;51.224;-2.328;2022-09-01T07:02:57;16.60;99.10
65074;DHT22;52218;51.224;-2.328;2022-09-01T07:06:40;16.70;99.10
65074;DHT22;52218;51.224;-2.328;2022-09-01T07:10:45;16.70;99.00
65074;DHT22;52218;51.224;-2.328;2022-09-01T07:14:47;16.80;98.90
65074;DHT22;52218;51.224;-2.328;2022-09-01T07:18:51;16.80;99.00
65074;DHT22;52218;51.224;-2.328;2022-09-01T07:22:41;16.90;98.90
65074;DHT22;52218;51.224;-2.328;2022-09-01T07:26:43;17.00;98.80
65074;DHT22;52218;51.224;-2.328;2022-09-01T07:30:28;17.10;98.60
65074;DHT22;52218;51.224;-2.328;2022-09-01T07:34:12;17.10;98.60
65074;DHT22;52218;51.224;-2.328;2022-09-01T07:38:14;17.20;98.40
65074;DHT22;52218;51.224;-2.328;2022-09-01T07:42:20;17.40;98.40
65074;DHT22;52218;51.224;-2.328;2022-09-01T07:46:23;17.50;98.30
65074;DHT22;52218;51.224;-2.328;2022-09-01T07:50:21;17.60;98.00
65074;DHT22;52218;51.224;-2.328;2022-09-01T07:54:20;17.80;97.80
65074;DHT22;52218;51.224;-2.328;2022-09-01T07:58:04;17.90;97.70
65074;DHT22;52218;51.224;-2.328;2022-09-01T08:01:46;18.00;97.40
65074;DHT22;52218;51.224;-2.328;2022-09-01T08:05:28;18.10;97.50
65074;DHT22;52218;51.224;-2.328;2022-09-01T08:09:11;18.20;97.30
65074;DHT22;52218;51.224;-2.328;2022-09-01T08:13:13;18.40;97.10
65074;DHT22;52218;51.224;-2.328;2022-09-01T08:16:56;18.50;97.10
65074;DHT22;52218;51.224;-2.328;2022-09-01T08:20:39;18.70;96.90
65074;DHT22;52218;51.224;-2.328;2022-09-01T08:24:25;18.90;96.60
65074;DHT22;52218;51.224;-2.328;2022-09-01T08:28:07;19.10;96.30
65074;DHT22;52218;51.224;-2.328;2022-09-01T08:31:50;19.30;96.10
65074;DHT22;52218;51.224;-2.328;2022-09-01T08:35:38;19.50;95.60
65074;DHT22;52218;51.224;-2.328;2022-09-01T08:39:20;19.80;95.30
65074;DHT22;52218;51.224;-2.328;2022-09-01T08:46:48;20.30;94.50
65074;DHT22;52218;51.224;-2.328;2022-09-01T08:50:37;20.30;94.50
65074;DHT22;52218;51.224;-2.328;2022-09-01T08:58:16;20.60;94.10
65074;DHT22;52218;51.224;-2.328;2022-09-01T09:06:19;21.20;93.40
65074;DHT22;52218;51.224;-2.328;2022-09-01T09:17:58;21.30;93.20
65074;DHT22;52218;51.224;-2.328;2022-09-01T09:22:04;21.50;93.00
65074;DHT22;52218;51.224;-2.328;2022-09-01T09:25:48;21.70;92.90
65074;DHT22;52218;51.224;-2.328;2022-09-01T09:29:31;21.80;92.40
65074;DHT22;52218;51.224;-2.328;2022-09-01T09:33:35;21.90;92.10
65074;DHT22;52218;51.224;-2.328;2022-09-01T09:37:33;22.20;92.40
65074;DHT22;52218;51.224;-2.328;2022-09-01T09:41:20;22.70;91.60
65074;DHT22;52218;51.224;-2.328;2022-09-01T09:49:29;23.80;90.80
65074;DHT22;52218;51.224;-2.328;2022-09-01T10:04:48;25.50;86.60
65074;DHT22;52218;51.224;-2.328;2022-09-01T10:08:42;25.70;83.80
65074;DHT22;52218;51.224;-2.328;2022-09-01T10:12:27;25.80;83.70
65074;DHT22;52218;51.224;-2.328;2022-09-01T10:16:27;26.10;82.60
65074;DHT22;52218;51.224;-2.328;2022-09-01T10:20:22;26.50;82.20
65074;DHT22;52218;51.224;-2.328;2022-09-01T10:24:29;27.00;80.10
65074;DHT22;52218;51.224;-2.328;2022-09-01T10:28:15;27.80;79.20
65074;DHT22;52218;51.224;-2.328;2022-09-01T10:32:07;28.60;75.00
65074;DHT22;52218;51.224;-2.328;2022-09-01T10:36:12;29.50;71.60
65074;DHT22;52218;51.224;-2.328;2022-09-01T10:40:15;30.40;68.90
65074;DHT22;52218;51.224;-2.328;2022-09-01T10:44:23;31.20;68.00
65074;DHT22;52218;51.224;-2.328;2022-09-01T10:48:22;32.00;61.80
65074;DHT22;52218;51.224;-2.328;2022-09-01T11:08:44;32.90;54.70
65074;DHT22;52218;51.224;-2.328;2022-09-01T11:13:07;32.90;57.70
65074;DHT22;52218;51.224;-2.328;2022-09-01T11:21:33;33.50;55.00
65074;DHT22;52218;51.224;-2.328;2022-09-01T11:34:00;32.40;53.20
65074;DHT22;52218;51.224;-2.328;2022-09-01T11:37:50;31.90;53.70
65074;DHT22;52218;51.224;-2.328;2022-09-01T11:45:29;31.10;52.80
65074;DHT22;52218;51.224;-2.328;2022-09-01T11:53:21;29.30;55.20
65074;DHT22;52218;51.224;-2.328;2022-09-01T11:57:23;28.50;56.90
65074;DHT22;52218;51.224;-2.328;2022-09-01T12:01:16;27.80;58.00
65074;DHT22;52218;51.224;-2.328;2022-09-01T12:05:00;27.30;58.90
65074;DHT22;52218;51.224;-2.328;2022-09-01T12:08:54;26.90;59.70
65074;DHT22;52218;51.224;-2.328;2022-09-01T12:12:38;26.70;60.20
65074;DHT22;52218;51.224;-2.328;2022-09-01T12:16:20;26.50;60.70
65074;DHT22;52218;51.224;-2.328;2022-09-01T12:20:38;26.30;61.00
65074;DHT22;52218;51.224;-2.328;2022-09-01T12:24:22;26.10;62.00
65074;DHT22;52218;51.224;-2.328;2022-09-01T12:28:04;26.20;62.00
65074;DHT22;52218;51.224;-2.328;2022-09-01T12:31:48;26.30;62.00
65074;DHT22;52218;51.224;-2.328;2022-09-01T12:35:31;26.20;61.80
65074;DHT22;52218;51.224;-2.328;2022-09-01T12:42:58;26.10;61.80
65074;DHT22;52218;51.224;-2.328;2022-09-01T12:46:42;25.90;62.50
65074;DHT22;52218;51.224;-2.328;2022-09-01T12:54:07;25.60;62.10
65074;DHT22;52218;51.224;-2.328;2022-09-01T12:57:58;25.40;62.80
65074;DHT22;52218;51.224;-2.328;2022-09-01T13:01:41;25.30;63.40
65074;DHT22;52218;51.224;-2.328;2022-09-01T13:05:45;25.30;63.50
65074;DHT22;52218;51.224;-2.328;2022-09-01T13:09:32;25.30;63.30
65074;DHT22;52218;51.224;-2.328;2022-09-01T13:13:17;25.30;62.70
65074;DHT22;52218;51.224;-2.328;2022-09-01T13:16:59;25.30;62.70
65074;DHT22;52218;51.224;-2.328;2022-09-01T13:20:42;25.20;63.30
65074;DHT22;52218;51.224;-2.328;2022-09-01T13:24:24;25.10;63.10
65074;DHT22;52218;51.224;-2.328;2022-09-01T13:28:12;25.10;63.60
65074;DHT22;52218;51.224;-2.328;2022-09-01T13:31:54;25.10;63.70
65074;DHT22;52218;51.224;-2.328;2022-09-01T13:35:56;25.00;64.00
65074;DHT22;52218;51.224;-2.328;2022-09-01T13:39:38;24.90;64.10
65074;DHT22;52218;51.224;-2.328;2022-09-01T13:43:22;24.90;64.40
65074;DHT22;52218;51.224;-2.328;2022-09-01T13:47:04;24.70;64.30
65074;DHT22;52218;51.224;-2.328;2022-09-01T13:51:06;24.70;64.50
65074;DHT22;52218;51.224;-2.328;2022-09-01T13:54:59;24.60;64.50
65074;DHT22;52218;51.224;-2.328;2022-09-01T13:58:42;24.50;65.00
65074;DHT22;52218;51.224;-2.328;2022-09-01T14:02:26;24.30;64.50
65074;DHT22;52218;51.224;-2.328;2022-09-01T14:06:08;24.30;65.20
65074;DHT22;52218;51.224;-2.328;2022-09-01T14:09:50;24.40;65.30
65074;DHT22;52218;51.224;-2.328;2022-09-01T14:13:32;25.00;64.00
65074;DHT22;52218;51.224;-2.328;2022-09-01T14:17:16;25.70;62.50
65074;DHT22;52218;51.224;-2.328;2022-09-01T14:20:57;26.30;61.30
65074;DHT22;52218;51.224;-2.328;2022-09-01T14:24:41;26.60;60.60
65074;DHT22;52218;51.224;-2.328;2022-09-01T14:28:24;26.50;60.70
65074;DHT22;52218;51.224;-2.328;2022-09-01T14:32:06;26.40;61.60
65074;DHT22;52218;51.224;-2.328;2022-09-01T14:35:49;27.00;60.60
65074;DHT22;52218;51.224;-2.328;2022-09-01T14:39:31;27.40;59.50
65074;DHT22;52218;51.224;-2.328;2022-09-01T14:43:13;27.50;59.30
65074;DHT22;52218;51.224;-2.328;2022-09-01T14:46:55;27.50;59.70
65074;DHT22;52218;51.224;-2.328;2022-09-01T14:50:40;27.80;58.50
65074;DHT22;52218;51.224;-2.328;2022-09-01T14:54:23;28.00;58.50
65074;DHT22;52218;51.224;-2.328;2022-09-01T14:58:05;28.30;57.50
65074;DHT22;52218;51.224;-2.328;2022-09-01T15:01:47;28.70;57.00
65074;DHT22;52218;51.224;-2.328;2022-09-01T15:05:29;29.10;56.00
65074;DHT22;52218;51.224;-2.328;2022-09-01T15:09:20;29.50;55.30
65074;DHT22;52218;51.224;-2.328;2022-09-01T15:13:03;29.60;54.80
65074;DHT22;52218;51.224;-2.328;2022-09-01T15:16:45;29.70;54.90
65074;DHT22;52218;51.224;-2.328;2022-09-01T15:20:28;29.80;55.10
65074;DHT22;52218;51.224;-2.328;2022-09-01T15:24:29;29.80;55.20
65074;DHT22;52218;51.224;-2.328;2022-09-01T15:28:11;29.80;55.50
65074;DHT22;52218;51.224;-2.328;2022-09-01T15:31:53;29.80;55.30
65074;DHT22;52218;51.224;-2.328;2022-09-01T15:35:36;29.60;55.70
65074;DHT22;52218;51.224;-2.328;2022-09-01T15:39:19;29.10;56.50
65074;DHT22;52218;51.224;-2.328;2022-09-01T15:43:01;28.70;57.40
65074;DHT22;52218;51.224;-2.328;2022-09-01T15:46:42;28.30;58.00
65074;DHT22;52218;51.224;-2.328;2022-09-01T15:50:26;27.90;58.60
65074;DHT22;52218;51.224;-2.328;2022-09-01T15:54:14;27.60;58.80
65074;DHT22;52218;51.224;-2.328;2022-09-01T15:57:57;27.30;59.60
65074;DHT22;52218;51.224;-2.328;2022-09-01T16:01:42;27.00;60.00
65074;DHT22;52218;51.224;-2.328;2022-09-01T16:05:25;26.70;60.80
65074;DHT22;52218;51.224;-2.328;2022-09-01T16:09:08;26.40;61.80
65074;DHT22;52218;51.224;-2.328;2022-09-01T16:12:50;26.30;62.00
65074;DHT22;52218;51.224;-2.328;2022-09-01T16:16:40;26.10;62.60
65074;DHT22;52218;51.224;-2.328;2022-09-01T16:21:05;25.90;62.90
65074;DHT22;52218;51.224;-2.328;2022-09-01T16:24:50;25.60;63.60
65074;DHT22;52218;51.224;-2.328;2022-09-01T16:28:35;25.30;64.30
65074;DHT22;52218;51.224;-2.328;2022-09-01T16:32:18;25.10;65.30
65074;DHT22;52218;51.224;-2.328;2022-09-01T16:52:02;24.10;68.10
65074;DHT22;52218;51.224;-2.328;2022-09-01T16:56:04;23.90;68.80
65074;DHT22;52218;51.224;-2.328;2022-09-01T16:59:54;23.70;68.80
65074;DHT22;52218;51.224;-2.328;2022-09-01T17:11:45;23.20;70.90
65074;DHT22;52218;51.224;-2.328;2022-09-01T17:15:33;23.00;71.40
65074;DHT22;52218;51.224;-2.328;2022-09-01T17:19:21;22.90;72.20
65074;DHT22;52218;51.224;-2.328;2022-09-01T17:23:03;22.70;72.80
65074;DHT22;52218;51.224;-2.328;2022-09-01T17:26:50;22.60;73.10
65074;DHT22;52218;51.224;-2.328;2022-09-01T17:30:40;22.40;73.10
65074;DHT22;52218;51.224;-2.328;2022-09-01T17:38:38;22.20;73.80
65074;DHT22;52218;51.224;-2.328;2022-09-01T17:42:36;22.00;73.80
65074;DHT22;52218;51.224;-2.328;2022-09-01T17:46:34;21.90;75.00
65074;DHT22;52218;51.224;-2.328;2022-09-01T17:50:55;21.70;75.50
65074;DHT22;52218;51.224;-2.328;2022-09-01T18:02:56;21.30;77.20
65074;DHT22;52218;51.224;-2.328;2022-09-01T18:07:00;21.20;77.90
65074;DHT22;52218;51.224;-2.328;2022-09-01T18:15:11;20.80;77.40
65074;DHT22;52218;51.224;-2.328;2022-09-01T18:18:58;20.70;79.20
65074;DHT22;52218;51.224;-2.328;2022-09-01T18:22:59;20.60;79.50
65074;DHT22;52218;51.224;-2.328;2022-09-01T18:26:46;20.40;80.10
65074;DHT22;52218;51.224;-2.328;2022-09-01T18:30:34;20.30;80.70
65074;DHT22;52218;51.224;-2.328;2022-09-01T18:39:02;20.00;80.70
65074;DHT22;52218;51.224;-2.328;2022-09-01T18:47:07;19.80;82.20
65074;DHT22;52218;51.224;-2.328;2022-09-01T18:50:56;19.60;82.30
65074;DHT22;52218;51.224;-2.328;2022-09-01T18:54:50;19.50;83.60
65074;DHT22;52218;51.224;-2.328;2022-09-01T18:58:46;19.40;83.60
65074;DHT22;52218;51.224;-2.328;2022-09-01T19:06:29;19.20;85.00
65074;DHT22;52218;51.224;-2.328;2022-09-01T19:10:19;19.10;84.50
65074;DHT22;52218;51.224;-2.328;2022-09-01T19:21:51;18.80;86.60
65074;DHT22;52218;51.224;-2.328;2022-09-01T19:25:35;18.80;87.20
65074;DHT22;52218;51.224;-2.328;2022-09-01T19:29:22;18.70;87.60
65074;DHT22;52218;51.224;-2.328;2022-09-01T19:33:07;18.60;88.10
65074;DHT22;52218;51.224;-2.328;2022-09-01T19:36:59;18.50;88.50
65074;DHT22;52218;51.224;-2.328;2022-09-01T19:40:42;18.50;88.80
65074;DHT22;52218;51.224;-2.328;2022-09-01T19:48:25;18.40;89.50
65074;DHT22;52218;51.224;-2.328;2022-09-01T19:56:23;18.30;90.00
65074;DHT22;52218;51.224;-2.328;2022-09-01T20:03:58;18.20;90.50
65074;DHT22;52218;51.224;-2.328;2022-09-01T20:07:48;18.10;90.80
65074;DHT22;52218;51.224;-2.328;2022-09-01T20:15:53;18.00;90.60
65074;DHT22;52218;51.224;-2.328;2022-09-01T20:27:31;17.80;91.30
65074;DHT22;52218;51.224;-2.328;2022-09-01T20:31:18;17.70;91.80
65074;DHT22;52218;51.224;-2.328;2022-09-01T20:35:28;17.70;92.20
65074;DHT22;52218;51.224;-2.328;2022-09-01T20:39:38;17.60;92.10
65074;DHT22;52218;51.224;-2.328;2022-09-01T20:43:42;17.60;92.90
65074;DHT22;52218;51.224;-2.328;2022-09-01T20:47:30;17.50;92.90
65074;DHT22;52218;51.224;-2.328;2022-09-01T20:51:29;17.50;93.20
65074;DHT22;52218;51.224;-2.328;2022-09-01T20:55:23;17.40;93.40
65074;DHT22;52218;51.224;-2.328;2022-09-01T21:07:27;17.50;93.90
65074;DHT22;52218;51.224;-2.328;2022-09-01T21:19:28;17.60;93.50
65074;DHT22;52218;51.224;-2.328;2022-09-01T21:23:12;17.70;93.90
65074;DHT22;52218;51.224;-2.328;2022-09-01T21:26:56;17.70;94.30
65074;DHT22;52218;51.224;-2.328;2022-09-01T21:30:40;17.70;94.30
65074;DHT22;52218;51.224;-2.328;2022-09-01T21:34:22;17.70;94.50
65074;DHT22;52218;51.224;-2.328;2022-09-01T21:38:04;17.80;94.50
65074;DHT22;52218;51.224;-2.328;2022-09-01T21:41:46;17.70;94.50
65074;DHT22;52218;51.224;-2.328;2022-09-01T21:45:31;17.80;94.60
65074;DHT22;52218;51.224;-2.328;2022-09-01T21:49:13;17.70;94.70
65074;DHT22;52218;51.224;-2.328;2022-09-01T21:52:55;17.80;94.70
65074;DHT22;52218;51.224;-2.328;2022-09-01T21:56:37;17.80;94.80
65074;DHT22;52218;51.224;-2.328;2022-09-01T22:00:28;17.80;94.90
65074;DHT22;52218;51.224;-2.328;2022-09-01T22:04:10;17.80;94.80
65074;DHT22;52218;51.224;-2.328;2022-09-01T22:07:53;17.90;94.90
65074;DHT22;52218;51.224;-2.328;2022-09-01T22:11:39;17.90;95.00
65074;DHT22;52218;51.224;-2.328;2022-09-01T22:15:23;17.90;95.00
65074;DHT22;52218;51.224;-2.328;2022-09-01T22:19:05;18.00;95.10
65074;DHT22;52218;51.224;-2.328;2022-09-01T22:22:49;17.90;95.20
65074;DHT22;52218;51.224;-2.328;2022-09-01T22:26:31;17.90;95.20
65074;DHT22;52218;51.224;-2.328;2022-09-01T22:30:13;17.90;95.30
65074;DHT22;52218;51.224;-2.328;2022-09-01T22:33:56;17.80;95.40
65074;DHT22;52218;51.224;-2.328;2022-09-01T22:37:39;17.70;95.60
65074;DHT22;52218;51.224;-2.328;2022-09-01T22:41:22;17.60;95.70
65074;DHT22;52218;51.224;-2.328;2022-09-01T22:45:06;17.60;95.90
65074;DHT22;52218;51.224;-2.328;2022-09-01T22:48:49;17.50;96.00
65074;DHT22;52218;51.224;-2.328;2022-09-01T22:52:31;17.40;96.10
65074;DHT22;52218;51.224;-2.328;2022-09-01T22:56:16;17.30;96.10
65074;DHT22;52218;51.224;-2.328;2022-09-01T23:00:03;17.30;96.40
65074;DHT22;52218;51.224;-2.328;2022-09-01T23:03:47;17.20;96.50
65074;DHT22;52218;51.224;-2.328;2022-09-01T23:07:34;17.20;96.70
65074;DHT22;52218;51.224;-2.328;2022-09-01T23:11:20;17.20;96.70
65074;DHT22;52218;51.224;-2.328;2022-09-01T23:15:02;17.10;96.80
65074;DHT22;52218;51.224;-2.328;2022-09-01T23:18:46;17.20;96.90
65074;DHT22;52218;51.224;-2.328;2022-09-01T23:22:28;17.20;97.00
65074;DHT22;52218;51.224;-2.328;2022-09-01T23:26:12;17.20;97.00
65074;DHT22;52218;51.224;-2.328;2022-09-01T23:29:54;17.20;97.00
65074;DHT22;52218;51.224;-2.328;2022-09-01T23:33:36;17.20;97.00
65074;DHT22;52218;51.224;-2.328;2022-09-01T23:37:18;17.30;97.00
65074;DHT22;52218;51.224;-2.328;2022-09-01T23:41:04;17.30;97.00
65074;DHT22;52218;51.224;-2.328;2022-09-01T23:44:46;17.30;97.10
65074;DHT22;52218;51.224;-2.328;2022-09-01T23:48:28;17.30;97.10
65074;DHT22;52218;51.224;-2.328;2022-09-01T23:52:10;17.30;97.10
65074;DHT22;52218;51.224;-2.328;2022-09-01T23:55:57;17.20;97.20
65074;DHT22;52218;51.224;-2.328;2022-09-01T23:59:39;17.20;97.30
